sensor_id;sensor_type;location;lat;lon;timestamp;temperature;humidity
10644;DHT22;5370;50.132;8.626;2024-01-15T00:01:29;0.80;71.40
10644;DHT22;5370;50.132;8.626;2024-01-15T00:03:55;0.80;71.40
10644;DHT22;5370;50.132;8.626;2024-01-15T00:06:20;0.80;71.50
10644;DHT22;5370;50.132;8.626;2024-01-15T00:08:46;0.80;71.50
10644;DHT22;5370;50.132;8.626;2024-01-15T00:11:12;0.80;71.60
10644;DHT22;5370;50.132;8.626;2024-01-15T00:13:37;0.80;71.80
10644;DHT22;5370;50.132;8.626;2024-01-15T00:16:04;0.70;71.80
10644;DHT22;5370;50.132;8.626;2024-01-15T00:18:30;0.70;72.00
10644;DHT22;5370;50.132;8.626;2024-01-15T00:20:55;0.70;72.40
10644;DHT22;5370;50.132;8.626;2024-01-15T00:23:22;0.70;72.20
10644;DHT22;5370;50.132;8.626;2024-01-15T00:25:47;0.70;72.30
10644;DHT22;5370;50.132;8.626;2024-01-15T00:28:13;0.70;72.40
10644;DHT22;5370;50.132;8.626;2024-01-15T00:30:38;0.70;72.60
10644;DHT22;5370;50.132;8.626;2024-01-15T00:33:04;0.60;72.50
10644;DHT22;5370;50.132;8.626;2024-01-15T00:35:30;0.60;72.60
10644;DHT22;5370;50.132;8.626;2024-01-15T00:37:55;0.60;72.70
10644;DHT22;5370;50.132;8.626;2024-01-15T00:40:21;0.60;72.80
10644;DHT22;5370;50.132;8.626;2024-01-15T00:42:46;0.60;72.90
10644;DHT22;5370;50.132;8.626;2024-01-15T00:45:12;0.60;73.10
10644;DHT22;5370;50.132;8.626;2024-01-15T00:47:37;0.60;73.30
10644;DHT22;5370;50.132;8.626;2024-01-15T00:50:03;0.60;73.30
10644;DHT22;5370;50.132;8.626;2024-01-15T00:52:30;0.50;73.30
10644;DHT22;5370;50.132;8.626;2024-01-15T00:54:55;0.60;73.50
10644;DHT22;5370;50.132;8.626;2024-01-15T00:57:21;0.50;73.50
10644;DHT22;5370;50.132;8.626;2024-01-15T00:59:47;0.50;73.70
10644;DHT22;5370;50.132;8.626;2024-01-15T01:02:12;0.50;73.80
10644;DHT22;5370;50.132;8.626;2024-01-15T01:04:38;0.50;73.90
10644;DHT22;5370;50.132;8.626;2024-01-15T01:07:03;0.50;74.10
10644;DHT22;5370;50.132;8.626;2024-01-15T01:09:29;0.40;74.10
10644;DHT22;5370;50.132;8.626;2024-01-15T01:11:56;0.40;74.30
10644;DHT22;5370;50.132;8.626;2024-01-15T01:14:22;0.40;74.30
10644;DHT22;5370;50.132;8.626;2024-01-15T01:16:47;0.40;74.30
10644;DHT22;5370;50.132;8.626;2024-01-15T01:19:13;0.40;74.30
10644;DHT22;5370;50.132;8.626;2024-01-15T01:21:38;0.40;74.30
10644;DHT22;5370;50.132;8.626;2024-01-15T01:24:04;0.40;74.30
10644;DHT22;5370;50.132;8.626;2024-01-15T01:26:30;0.40;74.40
10644;DHT22;5370;50.132;8.626;2024-01-15T01:28:56;0.40;74.40
10644;DHT22;5370;50.132;8.626;2024-01-15T01:31:21;0.50;74.40
10644;DHT22;5370;50.132;8.626;2024-01-15T01:33:47;0.50;74.50
10644;DHT22;5370;50.132;8.626;2024-01-15T01:36:12;0.50;74.40
10644;DHT22;5370;50.132;8.626;2024-01-15T01:38:38;0.50;74.30
10644;DHT22;5370;50.132;8.626;2024-01-15T01:41:03;0.50;74.20
10644;DHT22;5370;50.132;8.626;2024-01-15T01:43:29;0.60;74.30
10644;DHT22;5370;50.132;8.626;2024-01-15T01:45:57;0.60;74.20
10644;DHT22;5370;50.132;8.626;2024-01-15T01:48:24;0.60;74.10
10644;DHT22;5370;50.132;8.626;2024-01-15T01:50:52;0.60;74.00
10644;DHT22;5370;50.132;8.626;2024-01-15T01:53:18;0.60;73.90
10644;DHT22;5370;50.132;8.626;2024-01-15T01:55:45;0.60;73.80
10644;DHT22;5370;50.132;8.626;2024-01-15T01:58:11;0.60;73.80
10644;DHT22;5370;50.132;8.626;2024-01-15T02:00:36;0.60;73.70
10644;DHT22;5370;50.132;8.626;2024-01-15T02:03:03;0.60;73.60
10644;DHT22;5370;50.132;8.626;2024-01-15T02:05:29;0.70;73.60
10644;DHT22;5370;50.132;8.626;2024-01-15T02:07:55;0.70;73.50
10644;DHT22;5370;50.132;8.626;2024-01-15T02:10:21;0.60;73.30
10644;DHT22;5370;50.132;8.626;2024-01-15T02:12:46;0.70;73.30
10644;DHT22;5370;50.132;8.626;2024-01-15T02:15:14;0.70;73.20
10644;DHT22;5370;50.132;8.626;2024-01-15T02:18:07;0.70;73.20
10644;DHT22;5370;50.132;8.626;2024-01-15T02:20:33;0.70;73.20
10644;DHT22;5370;50.132;8.626;2024-01-15T02:25:37;0.70;73.00
10644;DHT22;5370;50.132;8.626;2024-01-15T02:28:03;0.70;73.00
10644;DHT22;5370;50.132;8.626;2024-01-15T02:30:30;0.80;73.00
10644;DHT22;5370;50.132;8.626;2024-01-15T02:32:56;0.80;72.90
10644;DHT22;5370;50.132;8.626;2024-01-15T02:35:22;0.80;72.90
10644;DHT22;5370;50.132;8.626;2024-01-15T02:37:47;0.80;72.80
10644;DHT22;5370;50.132;8.626;2024-01-15T02:40:13;0.80;72.70
10644;DHT22;5370;50.132;8.626;2024-01-15T02:42:38;0.90;72.70
10644;DHT22;5370;50.132;8.626;2024-01-15T02:45:04;0.90;72.60
10644;DHT22;5370;50.132;8.626;2024-01-15T02:47:30;0.90;72.70
10644;DHT22;5370;50.132;8.626;2024-01-15T02:49:55;0.90;72.60
10644;DHT22;5370;50.132;8.626;2024-01-15T02:52:21;1.00;72.70
10644;DHT22;5370;50.132;8.626;2024-01-15T02:54:46;1.00;72.80
10644;DHT22;5370;50.132;8.626;2024-01-15T02:57:12;1.00;72.70
10644;DHT22;5370;50.132;8.626;2024-01-15T02:59:37;1.00;72.70
10644;DHT22;5370;50.132;8.626;2024-01-15T03:02:03;0.90;72.80
10644;DHT22;5370;50.132;8.626;2024-01-15T03:04:29;0.90;73.10
10644;DHT22;5370;50.132;8.626;2024-01-15T03:06:54;0.90;73.20
10644;DHT22;5370;50.132;8.626;2024-01-15T03:09:20;0.80;73.40
10644;DHT22;5370;50.132;8.626;2024-01-15T03:11:45;0.80;73.60
10644;DHT22;5370;50.132;8.626;2024-01-15T03:14:11;0.80;73.90
10644;DHT22;5370;50.132;8.626;2024-01-15T03:16:36;0.70;74.20
10644;DHT22;5370;50.132;8.626;2024-01-15T03:19:02;0.60;74.30
10644;DHT22;5370;50.132;8.626;2024-01-15T03:21:27;0.60;74.60
10644;DHT22;5370;50.132;8.626;2024-01-15T03:23:53;0.50;74.90
10644;DHT22;5370;50.132;8.626;2024-01-15T03:26:19;0.50;75.20
10644;DHT22;5370;50.132;8.626;2024-01-15T03:28:44;0.50;75.40
10644;DHT22;5370;50.132;8.626;2024-01-15T03:31:10;0.50;75.50
10644;DHT22;5370;50.132;8.626;2024-01-15T03:33:35;0.50;75.60
10644;DHT22;5370;50.132;8.626;2024-01-15T03:36:01;0.50;76.40
10644;DHT22;5370;50.132;8.626;2024-01-15T03:38:28;0.50;75.80
10644;DHT22;5370;50.132;8.626;2024-01-15T03:40:54;0.50;75.80
10644;DHT22;5370;50.132;8.626;2024-01-15T03:43:19;0.50;75.80
10644;DHT22;5370;50.132;8.626;2024-01-15T03:45:45;0.50;75.90
10644;DHT22;5370;50.132;8.626;2024-01-15T03:48:11;0.50;76.00
10644;DHT22;5370;50.132;8.626;2024-01-15T03:50:36;0.50;76.10
10644;DHT22;5370;50.132;8.626;2024-01-15T03:53:02;0.50;76.30
10644;DHT22;5370;50.132;8.626;2024-01-15T03:55:28;0.50;76.30
10644;DHT22;5370;50.132;8.626;2024-01-15T03:57:53;0.50;76.50
10644;DHT22;5370;50.132;8.626;2024-01-15T04:00:19;0.50;76.70
10644;DHT22;5370;50.132;8.626;2024-01-15T04:02:44;0.50;76.80
10644;DHT22;5370;50.132;8.626;2024-01-15T04:05:10;0.50;76.90
10644;DHT22;5370;50.132;8.626;2024-01-15T04:07:35;0.50;76.90
10644;DHT22;5370;50.132;8.626;2024-01-15T04:10:01;0.60;77.10
10644;DHT22;5370;50.132;8.626;2024-01-15T04:12:27;0.40;77.00
10644;DHT22;5370;50.132;8.626;2024-01-15T04:14:52;0.40;77.10
10644;DHT22;5370;50.132;8.626;2024-01-15T04:17:18;0.40;77.40
10644;DHT22;5370;50.132;8.626;2024-01-15T04:19:44;0.40;77.60
10644;DHT22;5370;50.132;8.626;2024-01-15T04:22:09;0.40;77.60
10644;DHT22;5370;50.132;8.626;2024-01-15T04:24:35;0.50;77.80
10644;DHT22;5370;50.132;8.626;2024-01-15T04:27:00;0.50;77.90
10644;DHT22;5370;50.132;8.626;2024-01-15T04:29:26;0.50;78.00
10644;DHT22;5370;50.132;8.626;2024-01-15T04:31:52;0.50;78.10
10644;DHT22;5370;50.132;8.626;2024-01-15T04:34:18;0.50;78.00
10644;DHT22;5370;50.132;8.626;2024-01-15T04:36:43;0.60;78.10
10644;DHT22;5370;50.132;8.626;2024-01-15T04:39:09;0.60;78.10
10644;DHT22;5370;50.132;8.626;2024-01-15T04:41:34;0.60;78.20
10644;DHT22;5370;50.132;8.626;2024-01-15T04:44:00;0.60;78.10
10644;DHT22;5370;50.132;8.626;2024-01-15T04:46:26;0.60;78.20
10644;DHT22;5370;50.132;8.626;2024-01-15T04:48:52;0.60;78.20
10644;DHT22;5370;50.132;8.626;2024-01-15T04:51:17;0.70;78.20
10644;DHT22;5370;50.132;8.626;2024-01-15T04:53:43;0.70;78.40
10644;DHT22;5370;50.132;8.626;2024-01-15T04:56:08;0.70;78.00
10644;DHT22;5370;50.132;8.626;2024-01-15T04:58:34;0.80;78.00
10644;DHT22;5370;50.132;8.626;2024-01-15T05:00:59;0.90;78.10
10644;DHT22;5370;50.132;8.626;2024-01-15T05:03:25;0.90;78.10
10644;DHT22;5370;50.132;8.626;2024-01-15T05:05:50;1.00;78.10
10644;DHT22;5370;50.132;8.626;2024-01-15T05:08:16;1.00;78.00
10644;DHT22;5370;50.132;8.626;2024-01-15T05:10:41;1.10;77.90
10644;DHT22;5370;50.132;8.626;2024-01-15T05:13:07;1.10;77.80
10644;DHT22;5370;50.132;8.626;2024-01-15T05:15:32;1.20;77.80
10644;DHT22;5370;50.132;8.626;2024-01-15T05:17:58;1.20;77.70
10644;DHT22;5370;50.132;8.626;2024-01-15T05:20:23;1.20;77.60
10644;DHT22;5370;50.132;8.626;2024-01-15T05:22:49;1.20;77.50
10644;DHT22;5370;50.132;8.626;2024-01-15T05:25:14;1.30;77.40
10644;DHT22;5370;50.132;8.626;2024-01-15T05:27:40;1.30;77.40
10644;DHT22;5370;50.132;8.626;2024-01-15T05:30:05;1.30;77.30
10644;DHT22;5370;50.132;8.626;2024-01-15T05:32:32;1.40;77.40
10644;DHT22;5370;50.132;8.626;2024-01-15T05:34:57;1.40;77.40
10644;DHT22;5370;50.132;8.626;2024-01-15T05:37:23;1.40;77.30
10644;DHT22;5370;50.132;8.626;2024-01-15T05:39:48;1.40;77.20
10644;DHT22;5370;50.132;8.626;2024-01-15T05:42:14;1.50;77.30
10644;DHT22;5370;50.132;8.626;2024-01-15T05:44:39;1.50;77.20
10644;DHT22;5370;50.132;8.626;2024-01-15T05:47:05;1.50;77.00
10644;DHT22;5370;50.132;8.626;2024-01-15T05:49:30;1.50;76.90
10644;DHT22;5370;50.132;8.626;2024-01-15T05:51:56;1.50;76.80
10644;DHT22;5370;50.132;8.626;2024-01-15T05:54:21;1.50;76.80
10644;DHT22;5370;50.132;8.626;2024-01-15T05:56:47;1.60;76.80
10644;DHT22;5370;50.132;8.626;2024-01-15T05:59:12;1.50;76.80
10644;DHT22;5370;50.132;8.626;2024-01-15T06:01:38;1.50;76.70
10644;DHT22;5370;50.132;8.626;2024-01-15T06:04:03;1.50;76.70
10644;DHT22;5370;50.132;8.626;2024-01-15T06:06:29;1.50;76.60
10644;DHT22;5370;50.132;8.626;2024-01-15T06:08:54;1.50;76.70
10644;DHT22;5370;50.132;8.626;2024-01-15T06:11:20;1.40;76.50
10644;DHT22;5370;50.132;8.626;2024-01-15T06:13:45;1.50;76.70
10644;DHT22;5370;50.132;8.626;2024-01-15T06:16:14;1.50;76.60
10644;DHT22;5370;50.132;8.626;2024-01-15T06:18:41;1.50;76.60
10644;DHT22;5370;50.132;8.626;2024-01-15T06:21:07;1.50;76.60
10644;DHT22;5370;50.132;8.626;2024-01-15T06:23:32;1.50;76.60
10644;DHT22;5370;50.132;8.626;2024-01-15T06:25:58;1.50;76.50
10644;DHT22;5370;50.132;8.626;2024-01-15T06:28:23;1.50;76.60
10644;DHT22;5370;50.132;8.626;2024-01-15T06:30:49;1.40;76.50
10644;DHT22;5370;50.132;8.626;2024-01-15T06:33:14;1.40;76.80
10644;DHT22;5370;50.132;8.626;2024-01-15T06:35:40;1.40;77.00
10644;DHT22;5370;50.132;8.626;2024-01-15T06:38:05;1.40;77.30
10644;DHT22;5370;50.132;8.626;2024-01-15T06:40:31;1.40;77.30
10644;DHT22;5370;50.132;8.626;2024-01-15T06:42:56;1.40;77.60
10644;DHT22;5370;50.132;8.626;2024-01-15T06:45:22;1.40;78.10
10644;DHT22;5370;50.132;8.626;2024-01-15T06:47:47;1.40;78.50
10644;DHT22;5370;50.132;8.626;2024-01-15T06:50:13;1.50;78.90
10644;DHT22;5370;50.132;8.626;2024-01-15T06:52:38;1.50;79.00
10644;DHT22;5370;50.132;8.626;2024-01-15T06:55:04;1.50;78.90
10644;DHT22;5370;50.132;8.626;2024-01-15T06:57:31;1.60;78.90
10644;DHT22;5370;50.132;8.626;2024-01-15T06:59:56;1.60;78.60
10644;DHT22;5370;50.132;8.626;2024-01-15T07:02:22;1.60;78.40
10644;DHT22;5370;50.132;8.626;2024-01-15T07:04:47;1.60;78.40
10644;DHT22;5370;50.132;8.626;2024-01-15T07:07:13;1.60;78.30
10644;DHT22;5370;50.132;8.626;2024-01-15T07:09:38;1.60;78.20
10644;DHT22;5370;50.132;8.626;2024-01-15T07:12:04;1.60;78.10
10644;DHT22;5370;50.132;8.626;2024-01-15T07:14:30;1.60;78.10
10644;DHT22;5370;50.132;8.626;2024-01-15T07:16:55;1.60;78.00
10644;DHT22;5370;50.132;8.626;2024-01-15T07:19:21;1.60;78.00
10644;DHT22;5370;50.132;8.626;2024-01-15T07:21:46;1.60;77.90
10644;DHT22;5370;50.132;8.626;2024-01-15T07:24:12;1.70;78.00
10644;DHT22;5370;50.132;8.626;2024-01-15T07:26:37;1.60;77.70
10644;DHT22;5370;50.132;8.626;2024-01-15T07:29:03;1.60;77.50
10644;DHT22;5370;50.132;8.626;2024-01-15T07:31:28;1.60;77.50
10644;DHT22;5370;50.132;8.626;2024-01-15T07:33:54;1.60;77.50
10644;DHT22;5370;50.132;8.626;2024-01-15T07:36:19;1.50;77.50
10644;DHT22;5370;50.132;8.626;2024-01-15T07:38:45;1.60;77.70
10644;DHT22;5370;50.132;8.626;2024-01-15T07:41:10;1.60;77.80
10644;DHT22;5370;50.132;8.626;2024-01-15T07:43:38;1.60;77.70
10644;DHT22;5370;50.132;8.626;2024-01-15T07:46:04;1.60;77.60
10644;DHT22;5370;50.132;8.626;2024-01-15T07:48:29;1.70;77.60
10644;DHT22;5370;50.132;8.626;2024-01-15T07:50:55;1.70;77.60
10644;DHT22;5370;50.132;8.626;2024-01-15T07:53:20;1.70;77.60
10644;DHT22;5370;50.132;8.626;2024-01-15T07:55:46;1.80;77.60
10644;DHT22;5370;50.132;8.626;2024-01-15T07:58:11;1.80;77.60
10644;DHT22;5370;50.132;8.626;2024-01-15T08:00:37;1.80;77.60
10644;DHT22;5370;50.132;8.626;2024-01-15T08:03:02;1.90;77.60
10644;DHT22;5370;50.132;8.626;2024-01-15T08:05:28;1.90;77.60
10644;DHT22;5370;50.132;8.626;2024-01-15T08:07:54;1.90;77.70
10644;DHT22;5370;50.132;8.626;2024-01-15T08:10:19;1.90;77.80
10644;DHT22;5370;50.132;8.626;2024-01-15T08:12:45;1.90;78.00
10644;DHT22;5370;50.132;8.626;2024-01-15T08:15:10;1.90;78.00
10644;DHT22;5370;50.132;8.626;2024-01-15T08:17:36;2.00;78.10
10644;DHT22;5370;50.132;8.626;2024-01-15T08:20:01;1.90;78.10
10644;DHT22;5370;50.132;8.626;2024-01-15T08:22:28;2.00;78.20
10644;DHT22;5370;50.132;8.626;2024-01-15T08:24:53;2.00;78.20
10644;DHT22;5370;50.132;8.626;2024-01-15T08:27:20;2.00;78.20
10644;DHT22;5370;50.132;8.626;2024-01-15T08:29:46;2.10;78.20
10644;DHT22;5370;50.132;8.626;2024-01-15T08:32:11;2.10;78.30
10644;DHT22;5370;50.132;8.626;2024-01-15T08:34:39;2.20;78.30
10644;DHT22;5370;50.132;8.626;2024-01-15T08:37:05;2.20;78.90
10644;DHT22;5370;50.132;8.626;2024-01-15T08:39:30;2.30;78.20
10644;DHT22;5370;50.132;8.626;2024-01-15T08:41:56;2.40;78.20
10644;DHT22;5370;50.132;8.626;2024-01-15T08:44:21;2.40;78.00
10644;DHT22;5370;50.132;8.626;2024-01-15T08:46:47;2.50;78.00
10644;DHT22;5370;50.132;8.626;2024-01-15T08:49:12;2.60;78.00
10644;DHT22;5370;50.132;8.626;2024-01-15T08:51:38;2.60;77.80
10644;DHT22;5370;50.132;8.626;2024-01-15T08:54:04;2.70;77.60
10644;DHT22;5370;50.132;8.626;2024-01-15T08:56:30;2.80;77.50
10644;DHT22;5370;50.132;8.626;2024-01-15T08:58:55;2.80;77.20
10644;DHT22;5370;50.132;8.626;2024-01-15T09:01:21;2.80;76.90
10644;DHT22;5370;50.132;8.626;2024-01-15T09:03:47;2.90;76.80
10644;DHT22;5370;50.132;8.626;2024-01-15T09:06:13;2.90;76.60
10644;DHT22;5370;50.132;8.626;2024-01-15T09:08:39;2.90;76.30
10644;DHT22;5370;50.132;8.626;2024-01-15T09:11:04;2.90;76.20
10644;DHT22;5370;50.132;8.626;2024-01-15T09:13:30;2.90;75.80
10644;DHT22;5370;50.132;8.626;2024-01-15T09:15:56;2.90;75.50
10644;DHT22;5370;50.132;8.626;2024-01-15T09:18:22;2.90;75.30
10644;DHT22;5370;50.132;8.626;2024-01-15T09:20:47;2.90;75.20
10644;DHT22;5370;50.132;8.626;2024-01-15T09:23:13;2.90;75.10
10644;DHT22;5370;50.132;8.626;2024-01-15T09:25:38;2.90;75.10
10644;DHT22;5370;50.132;8.626;2024-01-15T09:28:04;2.90;75.20
10644;DHT22;5370;50.132;8.626;2024-01-15T09:30:29;3.00;75.40
10644;DHT22;5370;50.132;8.626;2024-01-15T09:32:55;3.10;75.40
10644;DHT22;5370;50.132;8.626;2024-01-15T09:35:21;3.20;75.20
10644;DHT22;5370;50.132;8.626;2024-01-15T09:37:46;3.30;74.90
10644;DHT22;5370;50.132;8.626;2024-01-15T09:40:13;3.40;74.70
10644;DHT22;5370;50.132;8.626;2024-01-15T09:42:43;3.50;74.50
10644;DHT22;5370;50.132;8.626;2024-01-15T09:45:09;3.50;74.20
10644;DHT22;5370;50.132;8.626;2024-01-15T09:47:36;3.50;73.90
10644;DHT22;5370;50.132;8.626;2024-01-15T09:50:03;3.60;73.80
10644;DHT22;5370;50.132;8.626;2024-01-15T09:52:30;3.70;74.00
10644;DHT22;5370;50.132;8.626;2024-01-15T09:54:57;3.80;74.10
10644;DHT22;5370;50.132;8.626;2024-01-15T09:57:23;4.00;74.20
10644;DHT22;5370;50.132;8.626;2024-01-15T09:59:50;4.20;74.00
10644;DHT22;5370;50.132;8.626;2024-01-15T10:02:17;4.30;73.20
10644;DHT22;5370;50.132;8.626;2024-01-15T10:04:44;4.40;72.90
10644;DHT22;5370;50.132;8.626;2024-01-15T10:07:12;4.50;72.50
10644;DHT22;5370;50.132;8.626;2024-01-15T10:09:40;4.60;71.90
10644;DHT22;5370;50.132;8.626;2024-01-15T10:12:06;4.60;71.60
10644;DHT22;5370;50.132;8.626;2024-01-15T10:14:31;4.70;71.40
10644;DHT22;5370;50.132;8.626;2024-01-15T10:17:08;4.80;71.20
10644;DHT22;5370;50.132;8.626;2024-01-15T10:19:36;4.80;70.80
10644;DHT22;5370;50.132;8.626;2024-01-15T10:22:02;4.80;70.50
10644;DHT22;5370;50.132;8.626;2024-01-15T10:24:28;4.90;70.50
10644;DHT22;5370;50.132;8.626;2024-01-15T10:27:05;4.90;70.50
10644;DHT22;5370;50.132;8.626;2024-01-15T10:29:31;5.00;70.20
10644;DHT22;5370;50.132;8.626;2024-01-15T10:31:57;5.00;70.00
10644;DHT22;5370;50.132;8.626;2024-01-15T10:34:22;5.00;69.80
10644;DHT22;5370;50.132;8.626;2024-01-15T10:36:48;5.00;69.60
10644;DHT22;5370;50.132;8.626;2024-01-15T10:39:23;5.00;69.20
10644;DHT22;5370;50.132;8.626;2024-01-15T10:41:50;5.00;69.20
10644;DHT22;5370;50.132;8.626;2024-01-15T10:44:17;5.00;68.80
10644;DHT22;5370;50.132;8.626;2024-01-15T10:46:43;4.90;68.80
10644;DHT22;5370;50.132;8.626;2024-01-15T10:49:09;4.90;68.80
10644;DHT22;5370;50.132;8.626;2024-01-15T10:51:36;4.90;68.90
10644;DHT22;5370;50.132;8.626;2024-01-15T10:54:02;4.90;68.80
10644;DHT22;5370;50.132;8.626;2024-01-15T10:56:30;4.90;68.90
10644;DHT22;5370;50.132;8.626;2024-01-15T10:58:57;4.90;68.90
10644;DHT22;5370;50.132;8.626;2024-01-15T11:01:23;5.10;69.50
10644;DHT22;5370;50.132;8.626;2024-01-15T11:03:49;5.30;69.60
10644;DHT22;5370;50.132;8.626;2024-01-15T11:06:18;5.50;69.30
10644;DHT22;5370;50.132;8.626;2024-01-15T11:08:52;5.70;68.90
10644;DHT22;5370;50.132;8.626;2024-01-15T11:11:18;5.80;68.60
10644;DHT22;5370;50.132;8.626;2024-01-15T11:13:46;5.90;68.10
10644;DHT22;5370;50.132;8.626;2024-01-15T11:16:13;6.00;67.70
10644;DHT22;5370;50.132;8.626;2024-01-15T11:18:41;5.90;67.10
10644;DHT22;5370;50.132;8.626;2024-01-15T11:23:59;5.80;66.60
10644;DHT22;5370;50.132;8.626;2024-01-15T11:26:44;5.60;66.40
10644;DHT22;5370;50.132;8.626;2024-01-15T11:29:29;5.50;66.40
10644;DHT22;5370;50.132;8.626;2024-01-15T11:34:20;5.30;66.70
10644;DHT22;5370;50.132;8.626;2024-01-15T11:41:59;5.00;66.90
10644;DHT22;5370;50.132;8.626;2024-01-15T11:44:25;4.90;67.20
10644;DHT22;5370;50.132;8.626;2024-01-15T11:52:20;4.90;67.70
10644;DHT22;5370;50.132;8.626;2024-01-15T11:54:55;4.90;67.70
10644;DHT22;5370;50.132;8.626;2024-01-15T11:58:00;4.90;68.00
10644;DHT22;5370;50.132;8.626;2024-01-15T12:00:26;5.00;68.30
10644;DHT22;5370;50.132;8.626;2024-01-15T12:02:52;5.00;68.40
10644;DHT22;5370;50.132;8.626;2024-01-15T12:05:18;5.20;68.50
10644;DHT22;5370;50.132;8.626;2024-01-15T12:07:46;5.30;68.60
10644;DHT22;5370;50.132;8.626;2024-01-15T12:10:17;5.50;68.70
10644;DHT22;5370;50.132;8.626;2024-01-15T12:12:57;5.70;68.60
10644;DHT22;5370;50.132;8.626;2024-01-15T12:15:24;5.80;68.20
10644;DHT22;5370;50.132;8.626;2024-01-15T12:17:50;5.90;67.50
10644;DHT22;5370;50.132;8.626;2024-01-15T12:20:16;6.00;67.30
10644;DHT22;5370;50.132;8.626;2024-01-15T12:22:42;6.00;66.80
10644;DHT22;5370;50.132;8.626;2024-01-15T12:25:09;5.90;66.40
10644;DHT22;5370;50.132;8.626;2024-01-15T12:27:34;5.80;66.40
10644;DHT22;5370;50.132;8.626;2024-01-15T12:30:00;5.80;66.50
10644;DHT22;5370;50.132;8.626;2024-01-15T12:32:26;5.80;66.70
10644;DHT22;5370;50.132;8.626;2024-01-15T12:34:51;5.70;66.60
10644;DHT22;5370;50.132;8.626;2024-01-15T12:37:20;5.80;66.90
10644;DHT22;5370;50.132;8.626;2024-01-15T12:39:47;5.80;66.80
10644;DHT22;5370;50.132;8.626;2024-01-15T12:42:14;5.80;66.90
10644;DHT22;5370;50.132;8.626;2024-01-15T12:44:42;5.80;67.20
10644;DHT22;5370;50.132;8.626;2024-01-15T12:47:07;5.80;67.10
10644;DHT22;5370;50.132;8.626;2024-01-15T12:49:33;5.80;67.10
10644;DHT22;5370;50.132;8.626;2024-01-15T12:52:01;5.80;67.20
10644;DHT22;5370;50.132;8.626;2024-01-15T12:54:27;5.90;67.10
10644;DHT22;5370;50.132;8.626;2024-01-15T12:56:52;5.90;66.80
10644;DHT22;5370;50.132;8.626;2024-01-15T12:59:18;5.90;66.80
10644;DHT22;5370;50.132;8.626;2024-01-15T13:01:45;5.90;66.70
10644;DHT22;5370;50.132;8.626;2024-01-15T13:04:11;5.90;66.40
10644;DHT22;5370;50.132;8.626;2024-01-15T13:06:37;5.80;66.00
10644;DHT22;5370;50.132;8.626;2024-01-15T13:09:03;5.80;65.90
10644;DHT22;5370;50.132;8.626;2024-01-15T13:11:32;5.70;65.80
10644;DHT22;5370;50.132;8.626;2024-01-15T13:13:58;5.70;65.90
10644;DHT22;5370;50.132;8.626;2024-01-15T13:16:24;5.60;65.80
10644;DHT22;5370;50.132;8.626;2024-01-15T13:18:52;5.60;65.90
10644;DHT22;5370;50.132;8.626;2024-01-15T13:21:17;5.60;66.00
10644;DHT22;5370;50.132;8.626;2024-01-15T13:23:43;5.60;66.20
10644;DHT22;5370;50.132;8.626;2024-01-15T13:26:08;5.60;66.20
10644;DHT22;5370;50.132;8.626;2024-01-15T13:28:34;5.60;66.20
10644;DHT22;5370;50.132;8.626;2024-01-15T13:31:00;5.60;66.20
10644;DHT22;5370;50.132;8.626;2024-01-15T13:33:26;5.60;65.70
10644;DHT22;5370;50.132;8.626;2024-01-15T13:35:51;5.50;65.60
10644;DHT22;5370;50.132;8.626;2024-01-15T13:38:17;5.40;66.40
10644;DHT22;5370;50.132;8.626;2024-01-15T13:40:43;5.40;65.90
10644;DHT22;5370;50.132;8.626;2024-01-15T13:43:11;5.40;66.00
10644;DHT22;5370;50.132;8.626;2024-01-15T13:45:36;5.40;66.10
10644;DHT22;5370;50.132;8.626;2024-01-15T13:48:03;5.40;66.20
10644;DHT22;5370;50.132;8.626;2024-01-15T13:50:31;5.50;66.40
10644;DHT22;5370;50.132;8.626;2024-01-15T13:52:56;5.50;66.30
10644;DHT22;5370;50.132;8.626;2024-01-15T13:55:22;5.60;66.50
10644;DHT22;5370;50.132;8.626;2024-01-15T13:57:48;5.70;66.50
10644;DHT22;5370;50.132;8.626;2024-01-15T14:00:14;5.80;66.60
10644;DHT22;5370;50.132;8.626;2024-01-15T14:02:44;5.80;66.40
10644;DHT22;5370;50.132;8.626;2024-01-15T14:05:09;5.80;65.60
10644;DHT22;5370;50.132;8.626;2024-01-15T14:07:38;5.70;65.40
10644;DHT22;5370;50.132;8.626;2024-01-15T14:10:05;5.60;65.40
10644;DHT22;5370;50.132;8.626;2024-01-15T14:12:30;5.50;65.40
10644;DHT22;5370;50.132;8.626;2024-01-15T14:14:56;5.40;65.30
10644;DHT22;5370;50.132;8.626;2024-01-15T14:17:22;5.30;65.20
10644;DHT22;5370;50.132;8.626;2024-01-15T14:19:47;5.20;65.30
10644;DHT22;5370;50.132;8.626;2024-01-15T14:22:13;5.10;65.50
10644;DHT22;5370;50.132;8.626;2024-01-15T14:24:38;5.00;65.40
10644;DHT22;5370;50.132;8.626;2024-01-15T14:27:04;4.90;66.20
10644;DHT22;5370;50.132;8.626;2024-01-15T14:29:30;4.80;65.70
10644;DHT22;5370;50.132;8.626;2024-01-15T14:31:56;4.70;65.80
10644;DHT22;5370;50.132;8.626;2024-01-15T14:34:22;4.60;66.00
10644;DHT22;5370;50.132;8.626;2024-01-15T14:36:50;4.50;66.20
10644;DHT22;5370;50.132;8.626;2024-01-15T14:39:15;4.50;66.40
10644;DHT22;5370;50.132;8.626;2024-01-15T14:41:41;4.50;66.60
10644;DHT22;5370;50.132;8.626;2024-01-15T14:44:07;4.50;66.70
10644;DHT22;5370;50.132;8.626;2024-01-15T14:46:33;4.40;66.50
10644;DHT22;5370;50.132;8.626;2024-01-15T14:48:58;4.40;66.60
10644;DHT22;5370;50.132;8.626;2024-01-15T14:51:24;4.40;66.60
10644;DHT22;5370;50.132;8.626;2024-01-15T14:53:49;4.30;66.60
10644;DHT22;5370;50.132;8.626;2024-01-15T14:56:15;4.30;66.70
10644;DHT22;5370;50.132;8.626;2024-01-15T14:58:40;4.30;66.80
10644;DHT22;5370;50.132;8.626;2024-01-15T15:01:09;4.30;66.90
10644;DHT22;5370;50.132;8.626;2024-01-15T15:03:35;4.30;67.80
10644;DHT22;5370;50.132;8.626;2024-01-15T15:06:00;4.40;67.40
10644;DHT22;5370;50.132;8.626;2024-01-15T15:08:26;4.50;67.60
10644;DHT22;5370;50.132;8.626;2024-01-15T15:10:52;4.60;67.70
10644;DHT22;5370;50.132;8.626;2024-01-15T15:13:18;4.70;67.70
10644;DHT22;5370;50.132;8.626;2024-01-15T15:15:44;4.80;67.60
10644;DHT22;5370;50.132;8.626;2024-01-15T15:18:09;4.90;67.50
10644;DHT22;5370;50.132;8.626;2024-01-15T15:20:35;4.90;67.30
10644;DHT22;5370;50.132;8.626;2024-01-15T15:23:01;4.90;67.30
10644;DHT22;5370;50.132;8.626;2024-01-15T15:25:26;4.90;67.30
10644;DHT22;5370;50.132;8.626;2024-01-15T15:27:52;5.00;67.10
10644;DHT22;5370;50.132;8.626;2024-01-15T15:30:17;5.00;67.10
10644;DHT22;5370;50.132;8.626;2024-01-15T15:32:43;5.00;67.10
10644;DHT22;5370;50.132;8.626;2024-01-15T15:35:09;5.00;66.80
10644;DHT22;5370;50.132;8.626;2024-01-15T15:37:34;5.00;66.70
10644;DHT22;5370;50.132;8.626;2024-01-15T15:40:00;5.00;66.60
10644;DHT22;5370;50.132;8.626;2024-01-15T15:42:25;4.90;66.50
10644;DHT22;5370;50.132;8.626;2024-01-15T15:44:51;4.90;66.50
10644;DHT22;5370;50.132;8.626;2024-01-15T15:47:18;4.80;66.40
10644;DHT22;5370;50.132;8.626;2024-01-15T15:49:44;4.90;66.50
10644;DHT22;5370;50.132;8.626;2024-01-15T15:52:09;4.80;66.30
10644;DHT22;5370;50.132;8.626;2024-01-15T15:54:35;4.80;66.20
10644;DHT22;5370;50.132;8.626;2024-01-15T15:57:01;4.70;66.10
10644;DHT22;5370;50.132;8.626;2024-01-15T15:59:28;4.60;66.00
10644;DHT22;5370;50.132;8.626;2024-01-15T16:01:54;4.60;66.00
10644;DHT22;5370;50.132;8.626;2024-01-15T16:04:20;4.60;66.10
10644;DHT22;5370;50.132;8.626;2024-01-15T16:06:46;4.60;66.30
10644;DHT22;5370;50.132;8.626;2024-01-15T16:09:12;4.50;66.20
10644;DHT22;5370;50.132;8.626;2024-01-15T16:11:39;4.50;66.30
10644;DHT22;5370;50.132;8.626;2024-01-15T16:14:04;4.50;66.20